createdAt,value
2019-05-25T00:03:28.163Z,40.00
2019-05-25T00:08:35.404Z,39.63
2019-05-25T00:13:45.051Z,39.00
2019-05-25T00:18:53.951Z,40.38
2019-05-25T00:24:11.890Z,37.38
2019-05-25T00:29:10.282Z,34.00
2019-05-25T00:34:17.454Z,32.75
2019-05-25T00:39:24.705Z,33.00
2019-05-25T00:44:32.008Z,34.38
2019-05-25T00:49:36.688Z,33.50
2019-05-25T00:54:43.080Z,34.38
2019-05-25T00:59:47.711Z,37.00
2019-05-25T01:04:56.883Z,36.78
2019-05-25T01:10:06.331Z,35.75
2019-05-25T01:15:15.940Z,35.56
2019-05-25T01:20:23.423Z,38.00
2019-05-25T01:25:30.250Z,39.38
2019-05-25T01:30:36.723Z,35.75
2019-05-25T01:35:42.508Z,35.00
2019-05-25T01:40:50.012Z,33.25
2019-05-25T01:45:58.271Z,33.22
2019-05-25T01:51:05.662Z,33.00
2019-05-25T01:56:12.723Z,33.13
2019-05-25T02:01:21.468Z,34.88
2019-05-25T02:06:28.247Z,33.75
2019-05-25T02:11:32.342Z,39.00
2019-05-25T02:16:39.291Z,36.00
2019-05-25T02:21:47.183Z,38.13
2019-05-25T02:26:54.440Z,33.89
2019-05-25T02:32:01.558Z,32.00
2019-05-25T02:37:10.786Z,38.00
2019-05-25T02:42:19.823Z,32.00
2019-05-25T02:47:27.310Z,35.00
2019-05-25T02:52:36.273Z,33.38
2019-05-25T02:57:45.471Z,36.00
2019-05-25T03:02:54.524Z,36.25
2019-05-25T03:07:59.635Z,35.00
2019-05-25T03:13:03.914Z,37.00
2019-05-25T03:18:14.691Z,35.92
2019-05-25T03:23:23.960Z,30.50
2019-05-25T03:28:32.955Z,33.88
2019-05-25T03:33:42.094Z,30.62
2019-05-25T03:38:45.971Z,32.00
2019-05-25T03:43:50.002Z,30.00
2019-05-25T03:48:53.101Z,26.67
2019-05-25T03:53:59.491Z,32.63
2019-05-25T03:59:04.201Z,23.50
2019-05-25T04:04:11.583Z,31.00
2019-05-25T04:09:21.340Z,32.00
2019-05-25T04:14:28.502Z,33.00
2019-05-25T04:19:33.051Z,34.75
2019-05-25T04:24:42.646Z,31.44
2019-05-25T04:29:50.664Z,32.00
2019-05-25T04:34:59.507Z,28.75
2019-05-25T04:40:07.222Z,32.25
2019-05-25T04:45:13.836Z,33.25
2019-05-25T04:50:20.907Z,32.00
2019-05-25T04:55:29.635Z,25.12
2019-05-25T05:00:36.737Z,31.00
2019-05-25T05:05:41.297Z,32.00
2019-05-25T05:10:45.909Z,28.75
2019-05-25T05:15:54.020Z,28.00
2019-05-25T05:20:58.632Z,28.00
2019-05-25T05:26:01.763Z,23.00
2019-05-25T05:31:05.802Z,25.25
2019-05-25T05:36:12.578Z,29.11
2019-05-25T05:41:16.375Z,27.00
2019-05-25T05:46:24.538Z,22.87
2019-05-25T05:51:32.412Z,15.86
2019-05-25T05:56:38.183Z,22.00
2019-05-25T06:01:46.281Z,20.25
2019-05-25T06:06:52.673Z,21.25
2019-05-25T06:12:01.521Z,19.75
2019-05-25T06:17:05.663Z,14.00
2019-05-25T06:22:14.180Z,13.86
2019-05-25T06:27:30.995Z,19.00
2019-05-25T06:32:35.860Z,17.33
2019-05-25T06:37:40.628Z,20.00
2019-05-25T06:42:45.555Z,16.00
2019-05-25T06:47:52.190Z,15.14
2019-05-25T06:52:58.340Z,10.00
2019-05-25T06:58:04.736Z,15.25
2019-05-25T07:03:10.423Z,16.29
2019-05-25T07:08:16.299Z,17.43
2019-05-25T07:13:23.881Z,17.62
2019-05-25T07:18:29.818Z,15.57
2019-05-25T07:23:35.846Z,20.62
2019-05-25T07:28:39.870Z,20.50
2019-05-25T07:33:44.840Z,18.71
2019-05-25T07:38:49.299Z,9.00
2019-05-25T07:43:52.865Z,16.00
2019-05-25T07:48:55.965Z,16.00
2019-05-25T07:53:58.801Z,18.67
2019-05-25T07:59:02.493Z,19.00
2019-05-25T08:04:08.354Z,14.71
2019-05-25T08:09:16.762Z,11.00
2019-05-25T08:14:20.147Z,15.00
2019-05-25T08:19:24.572Z,11.50
2019-05-25T08:24:30.639Z,15.71
2019-05-25T08:29:37.639Z,10.83
2019-05-25T08:34:43.616Z,23.62
2019-05-25T08:39:49.643Z,10.00
2019-05-25T08:44:54.031Z,9.00
2019-05-25T08:49:57.637Z,10.33
2019-05-25T08:55:08.474Z,9.40
2019-05-25T09:00:13.067Z,9.50
2019-05-25T09:05:17.314Z,12.60
2019-05-25T09:10:21.759Z,8.67
2019-05-25T09:15:25.650Z,10.33
2019-05-25T09:20:32.827Z,10.17
2019-05-25T09:25:40.708Z,9.71
2019-05-25T09:30:45.059Z,10.75
2019-05-25T09:35:48.827Z,12.17
2019-05-25T09:40:55.831Z,9.17
2019-05-25T09:46:03.331Z,13.88
2019-05-25T09:51:15.408Z,10.57
2019-05-25T09:56:14.144Z,10.20
2019-05-25T10:01:19.685Z,10.29
2019-05-25T10:06:23.263Z,9.17
2019-05-25T10:11:28.045Z,10.33
2019-05-25T10:16:31.867Z,5.00
2019-05-25T10:21:35.611Z,8.00
2019-05-25T10:26:42.176Z,8.20
2019-05-25T10:31:45.991Z,10.00
2019-05-25T10:36:51.551Z,15.14
2019-05-25T10:41:58.978Z,20.50
2019-05-25T10:47:04.350Z,12.00
2019-05-25T10:52:09.767Z,12.14
2019-05-25T10:57:17.138Z,12.00
2019-05-25T11:02:22.732Z,12.71
2019-05-25T11:07:29.944Z,15.14
2019-05-25T11:12:34.835Z,11.17
2019-05-25T11:17:40.420Z,12.71
2019-05-25T11:22:46.474Z,10.43
2019-05-25T11:27:51.034Z,8.00
2019-05-25T11:32:55.162Z,10.00
2019-05-25T11:37:59.903Z,10.71
2019-05-25T11:43:07.251Z,13.00
2019-05-25T11:48:12.875Z,11.57
2019-05-25T11:53:18.140Z,12.71
2019-05-25T11:58:23.744Z,17.71
2019-05-25T12:03:26.897Z,14.00
2019-05-25T12:08:32.576Z,27.29
2019-05-25T12:13:39.843Z,16.00
2019-05-25T12:18:45.415Z,14.86
2019-05-25T12:23:51.785Z,14.00
2019-05-25T12:28:56.431Z,10.33
2019-05-25T12:34:05.283Z,16.50
2019-05-25T12:39:09.903Z,15.00
2019-05-25T12:44:19.015Z,22.87
2019-05-25T12:49:22.736Z,14.60
2019-05-25T12:54:26.416Z,12.00
2019-05-25T12:59:31.914Z,10.33
2019-05-25T13:04:39.842Z,14.00
2019-05-25T13:09:44.071Z,10.00
2019-05-25T13:14:47.646Z,23.00
2019-05-25T13:19:51.880Z,14.60
2019-05-25T13:24:57.928Z,14.86
2019-05-25T13:30:06.185Z,8.60
2019-05-25T13:35:11.087Z,14.71
2019-05-25T13:40:16.357Z,13.43
2019-05-25T13:45:21.461Z,9.17
2019-05-25T13:50:29.259Z,10.17
2019-05-25T13:55:33.657Z,8.00
2019-05-25T14:00:38.285Z,9.33
2019-05-25T14:05:45.348Z,13.67
2019-05-25T14:10:50.678Z,12.71
2019-05-25T14:16:06.589Z,12.67
2019-05-25T14:21:02.976Z,12.29
2019-05-25T14:26:06.823Z,11.00
2019-05-25T14:31:10.877Z,14.17
2019-05-25T14:36:15.434Z,22.29
2019-05-25T14:41:20.909Z,14.86
2019-05-25T14:46:28.076Z,15.29
2019-05-25T14:51:36.286Z,11.83
2019-05-25T14:56:42.501Z,12.71
2019-05-25T15:02:01.582Z,23.86
2019-05-25T15:06:53.564Z,8.00
2019-05-25T15:11:58.137Z,14.86
2019-05-25T15:17:04.239Z,13.00
2019-05-25T15:22:10.370Z,11.14
2019-05-25T15:27:16.234Z,18.71
2019-05-25T15:32:22.623Z,15.14
2019-05-25T15:37:27.877Z,12.33
2019-05-25T15:42:32.274Z,14.00
2019-05-25T15:47:36.968Z,17.57
2019-05-25T15:52:41.525Z,14.33
2019-05-25T15:57:45.096Z,19.75
2019-05-25T16:02:52.303Z,19.62
2019-05-25T16:07:56.186Z,14.60
2019-05-25T16:13:00.916Z,14.43
2019-05-25T16:18:06.456Z,15.00
2019-05-25T16:23:13.828Z,16.00
2019-05-25T16:28:19.070Z,14.29
2019-05-25T16:33:23.438Z,11.17
2019-05-25T16:38:28.908Z,16.71
2019-05-25T16:43:35.015Z,13.29
2019-05-25T16:48:40.500Z,11.71
2019-05-25T16:53:46.170Z,10.00
2019-05-25T16:58:51.628Z,11.00
2019-05-25T17:03:56.837Z,10.00
2019-05-25T17:09:01.379Z,10.00
2019-05-25T17:14:06.568Z,12.25
2019-05-25T17:19:15.986Z,13.00
2019-05-25T17:24:20.313Z,12.83
2019-05-25T17:29:25.451Z,12.00
2019-05-25T17:34:30.718Z,12.86
2019-05-25T17:39:34.440Z,10.17
2019-05-25T17:44:38.819Z,13.17
2019-05-25T17:49:44.255Z,14.86
2019-05-25T17:54:49.596Z,11.71
2019-05-25T17:59:54.313Z,12.67
2019-05-25T18:04:59.082Z,11.00
2019-05-25T18:10:07.365Z,18.12
2019-05-25T18:15:10.562Z,16.67
2019-05-25T18:20:15.458Z,16.25
2019-05-25T18:25:20.127Z,14.71
2019-05-25T18:30:29.787Z,22.50
2019-05-25T18:35:34.967Z,17.00
2019-05-25T18:40:38.900Z,15.17
2019-05-25T18:45:46.127Z,20.00
2019-05-25T18:50:51.779Z,29.00
2019-05-25T18:55:57.327Z,18.14
2019-05-25T19:01:03.174Z,11.71
2019-05-25T19:06:08.496Z,15.00
2019-05-25T19:11:13.960Z,14.33
2019-05-25T19:16:18.631Z,14.71
2019-05-25T19:21:24.428Z,17.71
2019-05-25T19:26:29.570Z,19.00
2019-05-25T19:31:36.984Z,20.25
2019-05-25T19:36:41.805Z,19.29
2019-05-25T19:41:45.855Z,14.25
2019-05-25T19:46:53.580Z,22.00
2019-05-25T19:51:57.563Z,25.00
2019-05-25T19:57:02.495Z,24.75
2019-05-25T20:02:07.276Z,26.25
2019-05-25T20:07:12.026Z,33.50
2019-05-25T20:12:19.444Z,36.88
2019-05-25T20:17:23.300Z,34.50
2019-05-25T20:22:27.251Z,31.00
2019-05-25T20:27:31.119Z,29.00
2019-05-25T20:32:35.988Z,32.25
2019-05-25T20:37:39.792Z,31.67
2019-05-25T20:42:48.584Z,30.33
2019-05-25T20:47:53.171Z,36.75
2019-05-25T20:52:57.861Z,32.00
2019-05-25T20:58:07.301Z,30.10
2019-05-25T21:03:15.048Z,32.11
2019-05-25T21:08:25.180Z,34.13
2019-05-25T21:13:34.684Z,32.27
2019-05-25T21:18:43.224Z,33.00
2019-05-25T21:23:48.225Z,30.00
2019-05-25T21:28:54.073Z,32.63
2019-05-25T21:33:58.515Z,30.00
2019-05-25T21:39:06.938Z,32.00
2019-05-25T21:44:15.796Z,30.00
2019-05-25T21:49:21.748Z,27.25
2019-05-25T21:54:30.952Z,30.25
2019-05-25T21:59:40.024Z,35.38
2019-05-25T22:04:47.258Z,32.00
2019-05-25T22:09:54.650Z,29.87
2019-05-25T22:15:05.548Z,31.56
2019-05-25T22:20:13.015Z,30.88
2019-05-25T22:25:21.583Z,35.63
2019-05-25T22:30:30.733Z,28.87
2019-05-25T22:35:38.031Z,33.00
2019-05-25T22:40:47.012Z,29.75
2019-05-25T22:45:53.584Z,31.00
2019-05-25T22:51:03.236Z,30.37
2019-05-25T22:56:12.326Z,31.50
2019-05-25T23:01:19.127Z,30.62
2019-05-25T23:06:26.464Z,32.00
2019-05-25T23:11:33.867Z,33.00
2019-05-25T23:16:43.292Z,34.20
2019-05-25T23:21:49.726Z,31.78
2019-05-25T23:26:57.160Z,33.00
2019-05-25T23:32:06.115Z,30.00
2019-05-25T23:37:15.553Z,32.75
2019-05-25T23:42:24.507Z,32.63
2019-05-25T23:47:31.434Z,32.75
2019-05-25T23:52:38.916Z,33.00
2019-05-25T23:57:43.158Z,32.00
